Time;durP1;ratioP1;P1;durP2;ratioP2;P2;SDS_P1;SDS_P2;PMS_P1;PMS_P2;Temp;Humidity;BMP_temperature;BMP_pressure;BME280_temperature;BME280_humidity;BME280_pressure;Samples;Min_cycle;Max_cycle;Signal;HPM_P1;HPM_P2
2023/07/16 00:00:10;;;;;;;6.00;3.57;;;20.30;92.50;;;;;;5044965;28;20251;-79
2023/07/16 00:02:38;;;;;;;8.17;4.73;;;20.20;92.30;;;;;;5039267;28;20251;-80
2023/07/16 00:05:04;;;;;;;5.17;3.40;;;20.20;92.10;;;;;;5046451;28;20427;-80
2023/07/16 00:07:29;;;;;;;6.57;3.63;;;20.10;91.90;;;;;;5043602;28;20444;-80
2023/07/16 00:09:55;;;;;;;5.73;3.90;;;20.10;92.10;;;;;;5044084;28;20473;-79
2023/07/16 00:12:21;;;;;;;6.70;3.80;;;20.10;92.30;;;;;;5051785;28;20197;-79
2023/07/16 00:14:47;;;;;;;5.10;3.50;;;20.10;92.30;;;;;;5050380;28;20621;-79
2023/07/16 00:17:13;;;;;;;5.87;3.87;;;20.20;92.40;;;;;;5046408;28;20215;-79
2023/07/16 00:19:39;;;;;;;7.00;3.47;;;20.20;92.40;;;;;;5045500;28;20445;-79
2023/07/16 00:22:05;;;;;;;4.60;2.50;;;20.10;92.30;;;;;;5033115;28;20284;-80
2023/07/16 00:24:30;;;;;;;5.20;2.90;;;20.10;92.20;;;;;;5045097;28;20193;-78
2023/07/16 00:26:57;;;;;;;6.83;3.40;;;20.10;92.00;;;;;;5040715;28;20214;-77
2023/07/16 00:29:23;;;;;;;4.57;2.87;;;20.20;92.10;;;;;;5029287;28;20206;-76
2023/07/16 00:31:48;;;;;;;4.60;2.80;;;20.20;92.00;;;;;;5029530;28;20492;-77
2023/07/16 00:34:14;;;;;;;3.57;2.60;;;20.10;91.70;;;;;;5030468;28;20334;-77
2023/07/16 00:36:40;;;;;;;4.27;2.20;;;20.10;91.60;;;;;;5025159;28;20198;-77
2023/07/16 00:39:05;;;;;;;6.93;3.07;;;20.10;90.90;;;;;;5022217;28;20192;-76
2023/07/16 00:41:31;;;;;;;3.77;2.50;;;20.10;90.40;;;;;;5023986;28;20211;-77
2023/07/16 00:43:57;;;;;;;3.93;2.37;;;20.20;90.60;;;;;;5022239;28;20195;-77
2023/07/16 00:46:23;;;;;;;2.90;2.10;;;20.20;90.60;;;;;;5018049;28;20194;-79
2023/07/16 00:48:49;;;;;;;3.30;2.27;;;20.30;90.70;;;;;;5020688;28;20330;-77
2023/07/16 00:51:14;;;;;;;2.47;1.97;;;20.40;90.80;;;;;;5022304;28;20512;-77
2023/07/16 00:53:42;;;;;;;3.20;2.70;;;20.40;90.70;;;;;;5023631;28;20241;-77
2023/07/16 00:56:09;;;;;;;3.90;2.20;;;20.40;90.50;;;;;;5019240;28;20190;-77
2023/07/16 00:58:34;;;;;;;4.23;2.60;;;20.40;90.00;;;;;;5024462;28;20443;-76
2023/07/16 01:01:00;;;;;;;4.83;2.40;;;20.50;90.00;;;;;;5015319;28;20478;-77
2023/07/16 01:03:27;;;;;;;7.17;2.67;;;20.50;90.20;;;;;;5034229;28;20189;-76
2023/07/16 01:06:01;;;;;;;3.63;2.00;;;20.60;90.40;;;;;;5018752;28;20250;-76
2023/07/16 01:08:49;;;;;;;3.33;2.63;;;20.50;90.50;;;;;;5023270;28;20441;-76
2023/07/16 01:11:15;;;;;;;4.17;2.47;;;20.50;90.40;;;;;;5017225;28;20472;-77
2023/07/16 01:13:42;;;;;;;3.27;1.87;;;20.40;90.30;;;;;;5022546;28;20470;-76
2023/07/16 01:16:19;;;;;;;3.27;2.00;;;20.40;90.10;;;;;;5020894;28;20783;-76
2023/07/16 01:18:45;;;;;;;3.47;1.70;;;20.30;89.30;;;;;;5033623;28;20549;-78
2023/07/16 01:21:11;;;;;;;2.20;1.90;;;20.40;89.30;;;;;;5035417;28;20470;-78
2023/07/16 01:23:54;;;;;;;2.83;2.20;;;20.40;89.50;;;;;;5045253;28;20216;-78
2023/07/16 01:26:35;;;;;;;3.23;1.83;;;20.40;89.60;;;;;;5030909;28;20749;-79
2023/07/16 01:29:25;;;;;;;2.90;2.00;;;20.40;89.30;;;;;;5035073;28;20428;-81
2023/07/16 01:31:52;;;;;;;2.90;2.10;;;20.40;88.90;;;;;;5030887;28;20528;-78
2023/07/16 01:34:19;;;;;;;3.70;2.10;;;20.50;89.20;;;;;;5019536;28;20512;-79
2023/07/16 01:36:46;;;;;;;3.63;1.90;;;20.50;89.30;;;;;;5019655;28;20431;-80
2023/07/16 01:39:12;;;;;;;4.13;2.00;;;20.50;89.00;;;;;;5025912;28;20421;-78
2023/07/16 01:41:37;;;;;;;3.10;1.83;;;20.50;89.00;;;;;;5043084;28;20454;-78
2023/07/16 01:44:03;;;;;;;3.10;1.90;;;20.30;87.60;;;;;;5039144;28;20213;-79
2023/07/16 01:46:29;;;;;;;2.97;2.17;;;20.30;87.80;;;;;;5038059;28;20193;-79
2023/07/16 01:48:55;;;;;;;3.27;2.27;;;20.30;88.60;;;;;;5038434;28;20185;-79
2023/07/16 01:51:21;;;;;;;3.40;2.40;;;20.30;89.30;;;;;;5027989;28;20981;-79
2023/07/16 01:53:46;;;;;;;2.20;1.60;;;20.30;89.60;;;;;;5028406;28;20201;-80
2023/07/16 01:56:12;;;;;;;2.10;1.80;;;20.30;88.70;;;;;;5024333;28;20214;-80
2023/07/16 01:58:38;;;;;;;3.50;2.00;;;20.30;88.10;;;;;;5027923;28;20186;-80
2023/07/16 02:01:04;;;;;;;2.37;1.70;;;20.30;88.00;;;;;;5025233;28;20263;-77
2023/07/16 02:03:29;;;;;;;3.43;1.80;;;20.20;87.40;;;;;;5034944;28;20219;-79
2023/07/16 02:05:55;;;;;;;2.00;1.50;;;20.10;87.30;;;;;;5034270;28;20220;-79
2023/07/16 02:08:21;;;;;;;5.10;1.80;;;20.00;86.80;;;;;;5035463;28;20564;-79
2023/07/16 02:10:49;;;;;;;4.83;1.90;;;20.00;86.20;;;;;;5032760;28;20290;-79
2023/07/16 02:13:15;;;;;;;3.17;2.00;;;20.00;85.90;;;;;;5033560;28;20213;-81
2023/07/16 02:15:41;;;;;;;3.10;1.80;;;20.00;86.50;;;;;;5025784;28;20506;-75
2023/07/16 02:18:07;;;;;;;3.53;1.40;;;19.90;85.70;;;;;;5013295;28;20207;-77
2023/07/16 02:20:33;;;;;;;1.93;1.53;;;20.00;86.50;;;;;;5014877;28;20959;-76
2023/07/16 02:22:58;;;;;;;2.70;1.97;;;20.10;87.00;;;;;;5021125;28;20198;-77
2023/07/16 02:25:25;;;;;;;2.90;1.60;;;20.10;87.40;;;;;;5017979;28;20241;-77
2023/07/16 02:27:51;;;;;;;3.77;2.00;;;20.10;88.00;;;;;;5015114;28;20201;-77
2023/07/16 02:30:17;;;;;;;4.13;1.70;;;20.10;88.00;;;;;;5015381;28;20490;-75
2023/07/16 02:32:42;;;;;;;2.53;1.60;;;20.00;87.60;;;;;;5016998;28;20194;-76
2023/07/16 02:35:08;;;;;;;2.57;1.67;;;20.00;87.30;;;;;;5022425;28;20249;-77
2023/07/16 02:37:34;;;;;;;3.97;1.90;;;19.90;87.60;;;;;;5021917;28;20236;-77
2023/07/16 02:40:00;;;;;;;2.50;1.83;;;19.90;88.00;;;;;;5017277;28;20505;-77
2023/07/16 02:42:26;;;;;;;2.20;1.40;;;19.90;87.10;;;;;;5023721;28;20174;-76
2023/07/16 02:44:51;;;;;;;2.20;1.57;;;19.80;85.50;;;;;;5021752;28;20280;-76
2023/07/16 02:47:17;;;;;;;2.07;1.50;;;19.70;81.70;;;;;;5021601;28;21025;-76
2023/07/16 02:49:43;;;;;;;2.60;1.60;;;19.70;82.20;;;;;;5017273;28;20193;-76
2023/07/16 02:52:08;;;;;;;2.90;1.40;;;19.60;81.90;;;;;;5029608;28;20189;-76
2023/07/16 02:54:37;;;;;;;2.77;1.63;;;19.50;82.40;;;;;;5022829;28;20714;-77
2023/07/16 02:57:03;;;;;;;2.80;2.10;;;19.50;82.70;;;;;;5015437;28;20242;-76
2023/07/16 02:59:28;;;;;;;3.47;1.77;;;19.50;82.50;;;;;;5009854;28;20963;-76
2023/07/16 03:01:54;;;;;;;2.30;1.60;;;19.50;82.40;;;;;;5025632;28;20439;-77
2023/07/16 03:04:20;;;;;;;2.83;1.70;;;19.40;82.10;;;;;;5023856;28;20670;-76
2023/07/16 03:06:45;;;;;;;3.10;1.80;;;19.20;81.90;;;;;;5020223;28;20228;-76
2023/07/16 03:09:11;;;;;;;2.37;1.70;;;19.10;81.50;;;;;;5016228;28;20301;-76
2023/07/16 03:11:36;;;;;;;4.27;2.00;;;19.00;81.90;;;;;;5021601;28;20214;-76
2023/07/16 03:14:02;;;;;;;4.73;1.70;;;19.00;80.90;;;;;;5018327;28;20228;-77
2023/07/16 03:16:28;;;;;;;5.20;2.73;;;19.00;80.50;;;;;;5019945;28;20282;-76
2023/07/16 03:18:54;;;;;;;6.20;1.93;;;18.90;79.70;;;;;;5016861;28;20194;-77
2023/07/16 03:21:19;;;;;;;2.97;1.80;;;18.80;79.90;;;;;;5025906;28;20211;-77
2023/07/16 03:23:45;;;;;;;2.63;1.60;;;18.80;79.70;;;;;;5015702;28;20188;-76
2023/07/16 03:26:10;;;;;;;3.57;1.90;;;18.80;80.20;;;;;;5017965;28;20202;-76
2023/07/16 03:28:36;;;;;;;4.10;1.83;;;18.70;79.90;;;;;;5016705;28;20597;-75
2023/07/16 03:31:02;;;;;;;2.93;2.00;;;18.70;79.20;;;;;;5021194;28;21004;-76
2023/07/16 03:33:27;;;;;;;4.60;2.23;;;18.70;78.00;;;;;;5018845;28;20229;-77
2023/07/16 03:35:53;;;;;;;6.00;2.77;;;18.80;78.00;;;;;;5023291;28;20197;-77
2023/07/16 03:38:19;;;;;;;3.47;1.90;;;19.00;78.30;;;;;;5021008;28;20562;-76
2023/07/16 03:40:49;;;;;;;6.33;1.90;;;19.00;77.60;;;;;;5028095;28;20249;-76
2023/07/16 03:43:16;;;;;;;2.83;1.80;;;19.00;76.80;;;;;;5034410;28;20261;-76
2023/07/16 03:45:41;;;;;;;3.60;1.83;;;19.00;77.30;;;;;;5032752;28;20424;-77
2023/07/16 03:48:07;;;;;;;6.20;2.20;;;19.00;76.50;;;;;;5020102;28;20457;-77
2023/07/16 03:50:34;;;;;;;3.47;1.83;;;19.00;76.20;;;;;;5014010;28;20695;-76
2023/07/16 03:52:59;;;;;;;3.60;1.80;;;19.00;76.40;;;;;;5026144;28;20198;-77
2023/07/16 03:55:25;;;;;;;3.40;1.80;;;19.00;76.70;;;;;;5019878;28;20442;-77
2023/07/16 03:57:51;;;;;;;5.43;2.23;;;18.90;76.70;;;;;;5026686;28;20198;-77
2023/07/16 04:00:17;;;;;;;2.60;2.03;;;18.90;77.30;;;;;;5027781;28;20542;-76
2023/07/16 04:02:43;;;;;;;4.97;2.03;;;18.90;77.30;;;;;;5038534;28;20215;-76
2023/07/16 04:05:09;;;;;;;2.67;1.70;;;18.90;77.70;;;;;;5029051;28;20203;-76
2023/07/16 04:07:35;;;;;;;2.60;1.70;;;18.90;78.00;;;;;;5019670;28;20203;-76
2023/07/16 04:10:00;;;;;;;3.87;1.70;;;19.00;78.30;;;;;;5018226;28;20476;-76
2023/07/16 04:12:26;;;;;;;5.07;1.77;;;19.00;79.20;;;;;;5031203;28;20196;-77
2023/07/16 04:14:57;;;;;;;4.13;2.40;;;18.90;79.30;;;;;;5021520;28;20256;-77
2023/07/16 04:17:23;;;;;;;5.57;2.10;;;18.90;80.30;;;;;;5019454;28;20221;-76
2023/07/16 04:19:49;;;;;;;2.13;1.67;;;18.90;80.80;;;;;;5019461;28;20609;-76
2023/07/16 04:22:14;;;;;;;3.77;2.00;;;19.00;81.20;;;;;;5025342;28;20420;-76
2023/07/16 04:24:40;;;;;;;3.60;1.70;;;19.00;81.70;;;;;;5026317;28;20197;-77
2023/07/16 04:27:06;;;;;;;3.80;2.00;;;19.10;82.50;;;;;;5020057;28;20192;-76
2023/07/16 04:29:31;;;;;;;3.50;1.90;;;19.20;82.40;;;;;;5032478;28;20200;-76
2023/07/16 04:31:57;;;;;;;4.47;2.10;;;19.20;82.10;;;;;;5027999;28;20651;-76
2023/07/16 04:34:22;;;;;;;2.20;1.67;;;19.20;81.80;;;;;;5021928;28;20224;-76
2023/07/16 04:36:48;;;;;;;2.90;1.83;;;19.10;81.90;;;;;;5014581;28;20273;-77
2023/07/16 04:39:14;;;;;;;3.70;2.03;;;19.10;82.10;;;;;;5014991;28;20217;-77
2023/07/16 04:41:39;;;;;;;2.93;1.90;;;19.20;82.40;;;;;;5025702;28;20742;-76
2023/07/16 04:44:05;;;;;;;2.57;1.60;;;19.20;82.10;;;;;;5023752;28;20200;-76
2023/07/16 04:46:31;;;;;;;3.43;2.10;;;19.30;82.40;;;;;;5023089;28;20200;-76
2023/07/16 04:48:57;;;;;;;4.23;2.10;;;19.20;82.50;;;;;;5021846;28;20493;-76
2023/07/16 04:51:22;;;;;;;4.50;2.00;;;19.20;83.00;;;;;;5020530;28;20223;-78
2023/07/16 04:53:48;;;;;;;5.10;2.00;;;19.30;83.00;;;;;;5022930;28;20220;-77
2023/07/16 04:56:15;;;;;;;3.20;2.00;;;19.20;83.70;;;;;;5017761;28;20708;-78
2023/07/16 04:58:41;;;;;;;4.33;2.20;;;19.20;84.40;;;;;;5024104;28;20526;-77
2023/07/16 05:01:10;;;;;;;2.83;2.17;;;19.20;83.60;;;;;;5017077;28;20517;-77
2023/07/16 05:03:36;;;;;;;3.97;2.20;;;19.10;83.10;;;;;;5026775;28;21355;-77
2023/07/16 05:06:03;;;;;;;4.70;2.27;;;19.00;83.60;;;;;;5032276;28;20448;-77
2023/07/16 05:08:28;;;;;;;3.70;2.30;;;19.00;83.70;;;;;;5024559;28;20865;-76
2023/07/16 05:10:54;;;;;;;8.90;2.67;;;19.00;84.00;;;;;;5020326;28;20467;-76
2023/07/16 05:13:20;;;;;;;5.03;2.13;;;19.00;83.70;;;;;;5029474;28;20477;-75
2023/07/16 05:15:46;;;;;;;4.83;2.43;;;18.90;84.30;;;;;;5018728;28;20245;-76
2023/07/16 05:18:11;;;;;;;2.87;2.07;;;18.80;84.60;;;;;;5023789;28;20718;-77
2023/07/16 05:20:37;;;;;;;3.70;2.37;;;18.90;84.40;;;;;;5016262;28;20216;-76
2023/07/16 05:23:03;;;;;;;4.70;2.23;;;19.00;84.40;;;;;;5031434;28;20195;-76
2023/07/16 05:25:29;;;;;;;6.30;2.40;;;19.00;84.40;;;;;;5026694;28;20192;-79
2023/07/16 05:27:55;;;;;;;9.20;2.17;;;19.10;84.10;;;;;;5042063;28;20195;-78
2023/07/16 05:30:21;;;;;;;8.50;2.20;;;19.20;83.70;;;;;;5043474;28;20205;-79
2023/07/16 05:32:46;;;;;;;4.40;2.13;;;19.30;83.70;;;;;;5041776;28;20442;-79
2023/07/16 05:35:12;;;;;;;4.73;2.37;;;19.30;83.60;;;;;;5038878;28;20342;-78
2023/07/16 05:37:38;;;;;;;4.70;2.30;;;19.40;83.10;;;;;;5041528;28;20247;-79
2023/07/16 05:40:04;;;;;;;4.53;2.20;;;19.40;83.10;;;;;;5032846;28;20221;-80
2023/07/16 05:42:29;;;;;;;10.83;2.60;;;19.40;82.40;;;;;;5035033;28;20199;-79
2023/07/16 05:44:55;;;;;;;4.00;2.13;;;19.30;83.10;;;;;;5025363;28;20463;-79
2023/07/16 05:47:21;;;;;;;6.33;2.10;;;19.30;83.70;;;;;;5029551;28;20191;-79
2023/07/16 05:49:47;;;;;;;4.63;1.93;;;19.40;83.60;;;;;;5025687;28;20224;-79
2023/07/16 05:52:12;;;;;;;4.30;2.27;;;19.50;82.50;;;;;;5032323;28;20200;-80
2023/07/16 05:54:38;;;;;;;3.57;2.00;;;19.60;81.70;;;;;;5026902;28;20237;-79
2023/07/16 05:57:04;;;;;;;4.13;2.50;;;19.50;81.50;;;;;;5031774;28;20209;-79
2023/07/16 05:59:30;;;;;;;7.43;2.57;;;19.50;81.10;;;;;;5033653;28;20316;-79
2023/07/16 06:01:57;;;;;;;2.70;1.93;;;19.50;80.80;;;;;;5028257;28;20458;-80
2023/07/16 06:04:23;;;;;;;5.03;1.97;;;19.60;79.60;;;;;;5031583;28;20505;-78
2023/07/16 06:06:49;;;;;;;6.07;2.50;;;19.60;79.90;;;;;;5030768;28;20566;-78
2023/07/16 06:09:14;;;;;;;6.50;2.50;;;19.70;79.70;;;;;;5037767;28;20197;-79
2023/07/16 06:11:40;;;;;;;3.83;1.97;;;19.80;79.50;;;;;;5037815;28;20228;-78
2023/07/16 06:14:06;;;;;;;4.70;1.90;;;19.90;78.60;;;;;;5032707;28;20210;-77
2023/07/16 06:16:31;;;;;;;5.17;2.17;;;19.90;77.70;;;;;;5020715;28;20182;-79
2023/07/16 06:18:57;;;;;;;4.20;2.30;;;19.90;77.40;;;;;;5021058;28;20189;-80
2023/07/16 06:21:22;;;;;;;5.30;2.20;;;19.80;77.80;;;;;;5024347;28;20209;-80
2023/07/16 06:23:48;;;;;;;5.43;2.33;;;19.70;78.10;;;;;;5023189;28;20193;-79
2023/07/16 06:26:14;;;;;;;6.83;2.27;;;19.60;78.10;;;;;;5021084;28;20324;-79
2023/07/16 06:28:39;;;;;;;3.37;1.77;;;19.50;78.30;;;;;;5025217;28;20721;-79
2023/07/16 06:31:05;;;;;;;5.90;2.30;;;19.50;78.40;;;;;;5021596;28;20201;-78
2023/07/16 06:33:30;;;;;;;5.90;2.17;;;19.50;77.80;;;;;;5021554;28;20651;-78
2023/07/16 06:35:56;;;;;;;3.20;2.07;;;19.50;77.40;;;;;;5021371;28;20188;-78
2023/07/16 06:38:22;;;;;;;5.60;1.90;;;19.50;77.60;;;;;;5029161;28;20193;-79
2023/07/16 06:40:48;;;;;;;4.90;2.00;;;19.60;77.70;;;;;;5039398;28;20713;-79
2023/07/16 06:43:14;;;;;;;9.73;2.50;;;19.60;77.70;;;;;;5028619;28;20206;-78
2023/07/16 06:45:40;;;;;;;3.80;2.00;;;19.80;76.20;;;;;;5021998;28;20557;-78
2023/07/16 06:48:06;;;;;;;4.00;1.97;;;19.90;75.90;;;;;;5032759;28;20432;-80
2023/07/16 06:50:31;;;;;;;4.83;2.27;;;20.00;76.40;;;;;;5024756;28;20694;-79
2023/07/16 06:52:57;;;;;;;4.37;2.30;;;20.20;75.70;;;;;;5029694;28;20196;-80
2023/07/16 06:55:22;;;;;;;5.53;2.03;;;20.20;74.00;;;;;;5027558;28;20647;-78
2023/07/16 06:57:48;;;;;;;5.63;2.67;;;20.10;75.10;;;;;;5024849;28;20193;-79
2023/07/16 07:00:14;;;;;;;9.83;2.93;;;20.10;75.10;;;;;;5027262;28;20723;-80
2023/07/16 07:02:39;;;;;;;4.50;2.43;;;20.20;75.20;;;;;;5032980;28;20206;-80
2023/07/16 07:05:06;;;;;;;4.10;2.47;;;20.20;74.80;;;;;;5026126;28;20269;-80
2023/07/16 07:07:31;;;;;;;5.47;2.20;;;20.10;75.10;;;;;;5023171;28;20549;-78
2023/07/16 07:09:57;;;;;;;5.80;2.10;;;20.00;75.10;;;;;;5030163;28;20466;-78
2023/07/16 07:12:22;;;;;;;4.77;2.20;;;19.90;75.50;;;;;;5029467;28;20498;-79
2023/07/16 07:14:48;;;;;;;5.23;2.23;;;19.90;75.70;;;;;;5032805;28;20219;-78
2023/07/16 07:17:14;;;;;;;3.97;2.53;;;19.80;75.80;;;;;;5025981;28;20287;-78
2023/07/16 07:19:40;;;;;;;6.67;2.10;;;19.70;76.20;;;;;;5024127;28;20195;-81
2023/07/16 07:22:06;;;;;;;3.03;2.07;;;19.70;75.70;;;;;;5022383;28;20544;-80
2023/07/16 07:24:32;;;;;;;8.40;2.23;;;19.80;75.50;;;;;;5019989;28;20470;-80
2023/07/16 07:26:57;;;;;;;5.23;2.50;;;19.90;75.40;;;;;;5033102;28;20192;-79
2023/07/16 07:29:23;;;;;;;6.57;2.37;;;20.00;75.40;;;;;;5022801;28;20659;-78
2023/07/16 07:31:48;;;;;;;4.37;2.00;;;20.10;73.50;;;;;;5031965;28;20206;-81
2023/07/16 07:34:14;;;;;;;5.60;2.47;;;20.20;71.70;;;;;;5050427;28;20225;-79
2023/07/16 07:36:39;;;;;;;4.70;2.57;;;20.20;71.00;;;;;;5039533;28;20668;-79
2023/07/16 07:39:05;;;;;;;5.73;2.43;;;20.30;72.30;;;;;;5031968;28;20198;-87
2023/07/16 07:41:31;;;;;;;2.43;2.03;;;20.40;71.60;;;;;;5034951;28;20228;-80
2023/07/16 07:43:57;;;;;;;6.97;2.90;;;20.70;71.30;;;;;;5037285;28;20437;-83
2023/07/16 07:46:23;;;;;;;6.53;1.90;;;20.90;70.80;;;;;;5033083;28;20202;-77
2023/07/16 07:48:48;;;;;;;5.07;1.93;;;20.90;70.40;;;;;;5031558;28;20552;-80
2023/07/16 07:51:14;;;;;;;3.30;2.10;;;21.00;70.20;;;;;;5034437;28;20257;-79
2023/07/16 07:53:40;;;;;;;5.00;2.40;;;21.10;69.50;;;;;;5028582;28;20301;-82
2023/07/16 07:56:05;;;;;;;9.73;2.17;;;21.10;69.20;;;;;;5029245;28;20563;-78
2023/07/16 07:58:31;;;;;;;5.60;2.27;;;21.10;68.80;;;;;;5028865;28;20186;-78
2023/07/16 08:00:57;;;;;;;4.00;2.43;;;21.00;68.60;;;;;;5046382;28;20321;-81
2023/07/16 08:03:22;;;;;;;5.97;2.47;;;20.90;68.80;;;;;;5044378;28;20181;-81
2023/07/16 08:05:49;;;;;;;4.37;2.40;;;20.80;68.90;;;;;;5038506;28;20182;-79
2023/07/16 08:08:15;;;;;;;5.03;2.20;;;20.80;69.50;;;;;;5039895;28;20204;-83
2023/07/16 08:10:41;;;;;;;6.80;2.63;;;20.80;69.20;;;;;;5033541;28;20467;-79
2023/07/16 08:13:09;;;;;;;3.43;2.40;;;20.80;69.70;;;;;;5037904;28;20182;-81
2023/07/16 08:15:34;;;;;;;4.80;2.33;;;20.90;69.70;;;;;;5026824;28;20438;-80
2023/07/16 08:18:00;;;;;;;6.73;2.97;;;21.00;68.30;;;;;;5026470;28;20942;-80
2023/07/16 08:20:27;;;;;;;4.40;2.20;;;21.00;68.00;;;;;;5036436;28;20224;-80
2023/07/16 08:22:52;;;;;;;5.00;2.73;;;21.20;67.90;;;;;;5035841;28;20274;-81
2023/07/16 08:25:18;;;;;;;6.30;2.23;;;21.10;67.60;;;;;;5036044;28;20496;-80
2023/07/16 08:27:44;;;;;;;8.57;2.47;;;21.30;67.90;;;;;;5027910;28;20192;-79
2023/07/16 08:30:10;;;;;;;6.40;2.27;;;21.50;67.20;;;;;;5027533;28;20216;-79
2023/07/16 08:32:35;;;;;;;4.93;2.20;;;21.30;65.00;;;;;;5036990;28;20676;-79
2023/07/16 08:35:01;;;;;;;6.53;2.77;;;21.00;65.30;;;;;;5028422;28;20218;-78
2023/07/16 08:37:26;;;;;;;4.43;2.30;;;21.10;65.30;;;;;;5039340;28;20190;-79
2023/07/16 08:39:55;;;;;;;3.70;2.00;;;21.40;65.40;;;;;;5028896;28;20222;-79
2023/07/16 08:42:21;;;;;;;4.93;2.20;;;21.60;63.90;;;;;;5037059;28;20704;-78
2023/07/16 08:44:50;;;;;;;5.60;2.70;;;21.60;64.80;;;;;;5033522;28;20456;-79
2023/07/16 08:47:16;;;;;;;4.57;2.37;;;21.50;65.30;;;;;;5029947;28;20338;-78
2023/07/16 08:49:47;;;;;;;3.87;2.17;;;21.80;65.70;;;;;;5028531;28;20495;-79
2023/07/16 08:52:14;;;;;;;3.50;2.27;;;22.20;64.70;;;;;;5030859;28;21143;-79
2023/07/16 08:54:39;;;;;;;4.50;2.43;;;22.10;64.40;;;;;;5025919;28;20474;-80
2023/07/16 08:57:06;;;;;;;4.47;2.13;;;22.30;64.50;;;;;;5026738;28;20436;-79
2023/07/16 08:59:32;;;;;;;5.20;1.80;;;22.00;64.20;;;;;;5026586;28;20236;-85
2023/07/16 09:01:58;;;;;;;4.87;2.33;;;21.70;65.30;;;;;;5033894;28;20473;-80
2023/07/16 09:04:23;;;;;;;2.93;2.13;;;21.80;65.60;;;;;;5028701;28;20461;-79
2023/07/16 09:06:49;;;;;;;5.93;2.20;;;22.10;65.30;;;;;;5037081;28;20429;-81
2023/07/16 09:09:24;;;;;;;4.37;2.10;;;22.20;65.00;;;;;;5038508;28;20192;-78
2023/07/16 09:11:50;;;;;;;5.07;2.03;;;22.20;65.00;;;;;;5037490;28;20207;-81
2023/07/16 09:14:19;;;;;;;3.40;1.80;;;22.30;65.30;;;;;;5034565;28;20488;-82
2023/07/16 09:16:52;;;;;;;5.60;2.67;;;22.30;63.40;;;;;;5035972;28;20854;-80
2023/07/16 09:19:18;;;;;;;4.17;2.40;;;22.30;63.80;;;;;;5028840;28;20446;-78
2023/07/16 09:21:51;;;;;;;4.07;1.90;;;22.40;62.80;;;;;;5024833;28;20458;-78
2023/07/16 09:24:18;;;;;;;5.40;2.30;;;22.40;63.50;;;;;;5029602;28;20450;-81
2023/07/16 09:26:53;;;;;;;4.10;1.93;;;22.50;63.90;;;;;;5039626;28;20859;-78
2023/07/16 09:29:20;;;;;;;4.83;2.23;;;22.60;62.80;;;;;;5039793;28;20583;-80
2023/07/16 09:31:59;;;;;;;3.23;2.07;;;22.80;61.70;;;;;;5037399;28;20498;-79
2023/07/16 09:34:27;;;;;;;3.30;2.00;;;22.70;60.10;;;;;;5038548;28;20469;-79
2023/07/16 09:36:53;;;;;;;4.63;2.40;;;22.70;61.20;;;;;;5022040;28;20487;-80
2023/07/16 09:39:19;;;;;;;5.20;2.17;;;23.00;60.90;;;;;;5021380;28;20443;-78
2023/07/16 09:41:49;;;;;;;5.07;2.07;;;23.10;59.30;;;;;;5034482;28;20647;-78
2023/07/16 09:44:18;;;;;;;6.10;2.00;;;22.90;60.30;;;;;;5027243;28;20437;-78
2023/07/16 09:46:45;;;;;;;5.37;1.90;;;22.90;60.90;;;;;;5020411;28;20445;-79
2023/07/16 09:49:11;;;;;;;4.67;2.10;;;23.00;60.10;;;;;;5023506;28;20536;-78
2023/07/16 09:51:38;;;;;;;2.40;1.97;;;23.00;60.10;;;;;;5039403;28;20466;-79
2023/07/16 09:54:05;;;;;;;3.73;2.00;;;23.10;60.90;;;;;;5033441;28;20477;-80
2023/07/16 09:56:41;;;;;;;3.87;2.00;;;23.20;59.90;;;;;;5038910;28;20458;-77
2023/07/16 09:59:12;;;;;;;3.30;2.23;;;23.30;59.30;;;;;;5031859;28;20426;-78
2023/07/16 10:01:39;;;;;;;2.70;2.27;;;23.30;59.90;;;;;;5027451;28;20966;-79
2023/07/16 10:04:18;;;;;;;9.03;2.63;;;23.30;60.70;;;;;;5026187;28;20441;-79
2023/07/16 10:06:55;;;;;;;4.60;2.30;;;23.30;59.90;;;;;;5030500;28;20449;-82
2023/07/16 10:09:41;;;;;;;3.40;2.20;;;23.30;60.40;;;;;;5022794;28;20435;-81
2023/07/16 10:12:11;;;;;;;4.80;2.17;;;23.80;59.10;;;;;;5026077;28;20431;-79
2023/07/16 10:14:51;;;;;;;4.80;2.20;;;24.00;58.00;;;;;;5022926;28;20565;-77
2023/07/16 10:17:20;;;;;;;4.50;2.07;;;23.90;58.90;;;;;;5022837;28;20429;-81
2023/07/16 10:19:59;;;;;;;3.30;2.27;;;23.90;59.20;;;;;;5021006;28;20454;-79
2023/07/16 10:22:54;;;;;;;5.17;2.27;;;23.80;59.10;;;;;;5028049;28;20420;-80
2023/07/16 10:25:20;;;;;;;6.87;3.43;;;23.70;59.30;;;;;;4981070;28;20452;-80
2023/07/16 10:27:47;;;;;;;4.30;2.40;;;24.20;58.00;;;;;;4989670;28;21046;-79
2023/07/16 10:30:13;;;;;;;4.03;2.13;;;24.40;56.90;;;;;;4985132;28;20236;-79
2023/07/16 10:32:39;;;;;;;2.33;2.07;;;24.30;56.60;;;;;;4985349;28;20416;-79
2023/07/16 10:35:08;;;;;;;4.93;2.13;;;24.20;57.80;;;;;;4983602;28;20982;-78
2023/07/16 10:37:34;;;;;;;4.27;2.57;;;24.10;57.70;;;;;;4984556;28;20511;-79
2023/07/16 10:40:00;;;;;;;4.60;2.40;;;24.20;58.10;;;;;;4987871;28;20588;-78
2023/07/16 10:42:28;;;;;;;2.80;1.97;;;24.20;57.00;;;;;;4986914;28;20201;-79
2023/07/16 10:45:04;;;;;;;3.27;1.80;;;24.60;56.90;;;;;;4983441;28;20467;-79
2023/07/16 10:47:35;;;;;;;4.23;2.60;;;24.90;55.80;;;;;;4987339;28;20536;-79
2023/07/16 10:50:04;;;;;;;3.30;2.20;;;25.00;54.50;;;;;;4988498;28;21023;-78
2023/07/16 10:52:29;;;;;;;3.77;2.30;;;25.40;54.60;;;;;;4987562;28;20855;-82
2023/07/16 10:54:57;;;;;;;6.13;2.17;;;25.60;53.70;;;;;;4990153;28;20491;-79
2023/07/16 10:57:23;;;;;;;4.00;2.73;;;25.00;54.20;;;;;;4991176;28;20194;-80
2023/07/16 10:59:51;;;;;;;2.47;1.87;;;24.60;55.60;;;;;;4985097;28;20480;-77
2023/07/16 11:02:17;;;;;;;5.93;2.53;;;24.80;55.00;;;;;;5010794;28;20441;-77
2023/07/16 11:04:45;;;;;;;3.80;2.80;;;25.10;54.50;;;;;;5016986;28;20911;-77
2023/07/16 11:07:12;;;;;;;4.70;2.20;;;25.20;54.50;;;;;;5020820;28;20452;-75
2023/07/16 11:09:42;;;;;;;4.67;2.53;;;25.50;52.50;;;;;;5018743;28;20510;-75
2023/07/16 11:12:09;;;;;;;4.70;2.47;;;25.60;53.00;;;;;;5028502;28;20437;-75
2023/07/16 11:14:36;;;;;;;5.77;2.57;;;25.70;51.70;;;;;;5023655;28;20470;-77
2023/07/16 11:17:08;;;;;;;3.60;2.23;;;25.80;51.40;;;;;;5021643;28;20794;-77
2023/07/16 11:19:35;;;;;;;3.00;2.10;;;25.60;52.60;;;;;;5023212;28;20442;-76
2023/07/16 11:22:02;;;;;;;3.30;2.03;;;25.60;52.20;;;;;;5020959;28;20959;-76
2023/07/16 11:24:29;;;;;;;4.93;2.67;;;25.60;52.20;;;;;;5024842;28;20507;-77
2023/07/16 11:26:57;;;;;;;4.57;2.47;;;25.50;52.50;;;;;;5016020;28;21031;-76
2023/07/16 11:29:23;;;;;;;5.20;2.50;;;25.90;52.50;;;;;;5016082;28;20420;-78
2023/07/16 11:31:51;;;;;;;6.90;2.47;;;25.70;52.10;;;;;;5017698;28;20465;-77
2023/07/16 11:34:17;;;;;;;4.70;2.10;;;25.50;52.80;;;;;;5025986;28;20564;-78
2023/07/16 11:36:42;;;;;;;7.30;2.40;;;25.30;53.00;;;;;;5014627;28;20873;-77
2023/07/16 11:39:11;;;;;;;4.97;2.57;;;25.10;54.10;;;;;;5022365;28;20200;-77
2023/07/16 11:41:38;;;;;;;3.70;2.10;;;24.90;54.60;;;;;;5021672;28;20201;-77
2023/07/16 11:44:07;;;;;;;5.20;2.40;;;24.80;55.30;;;;;;5025754;28;20442;-78
2023/07/16 11:46:34;;;;;;;6.07;2.73;;;25.00;55.40;;;;;;5019580;28;20966;-76
2023/07/16 11:49:00;;;;;;;5.70;2.83;;;25.30;53.40;;;;;;5022046;28;20437;-76
2023/07/16 11:51:26;;;;;;;4.63;2.40;;;25.30;53.70;;;;;;5028042;28;20473;-77
2023/07/16 11:53:52;;;;;;;4.50;2.50;;;25.60;53.80;;;;;;5027772;28;20837;-78
2023/07/16 11:56:17;;;;;;;3.63;2.20;;;25.90;52.60;;;;;;5024331;28;20189;-77
2023/07/16 11:58:43;;;;;;;3.77;2.40;;;26.30;51.70;;;;;;5030339;28;20195;-76
2023/07/16 12:01:09;;;;;;;3.97;2.87;;;26.50;51.00;;;;;;5024016;28;20227;-77
2023/07/16 12:03:35;;;;;;;5.07;3.37;;;26.60;51.20;;;;;;5033134;28;20270;-77
2023/07/16 12:06:00;;;;;;;5.30;2.70;;;26.70;51.20;;;;;;5027474;28;20462;-79
2023/07/16 12:08:26;;;;;;;4.90;2.77;;;26.60;49.90;;;;;;5029728;28;20195;-77
2023/07/16 12:10:52;;;;;;;5.23;2.57;;;26.50;51.00;;;;;;5025429;28;20215;-78
2023/07/16 12:13:18;;;;;;;4.93;2.60;;;26.40;51.20;;;;;;5023715;28;20714;-78
2023/07/16 12:15:43;;;;;;;6.13;2.60;;;26.50;51.70;;;;;;5015213;28;20619;-77
2023/07/16 12:18:09;;;;;;;4.33;2.80;;;26.80;50.50;;;;;;5013981;28;20187;-77
2023/07/16 12:20:36;;;;;;;3.47;2.33;;;27.20;50.10;;;;;;5022023;28;20227;-78
2023/07/16 12:23:02;;;;;;;4.53;2.70;;;27.30;48.90;;;;;;5025830;28;20192;-77
2023/07/16 12:25:28;;;;;;;8.00;2.43;;;27.10;49.00;;;;;;5023574;28;20512;-76
2023/07/16 12:27:57;;;;;;;7.30;2.43;;;27.20;48.70;;;;;;5024863;28;20953;-76
2023/07/16 12:30:23;;;;;;;5.67;3.10;;;27.40;48.70;;;;;;5026732;28;20458;-76
2023/07/16 12:32:49;;;;;;;6.37;2.60;;;27.40;48.90;;;;;;5031901;28;20435;-76
2023/07/16 12:35:15;;;;;;;3.37;2.60;;;27.50;48.90;;;;;;5028178;28;20487;-76
2023/07/16 12:37:40;;;;;;;3.60;2.37;;;27.40;49.30;;;;;;5024292;28;20244;-77
2023/07/16 12:40:07;;;;;;;4.87;2.47;;;27.80;49.30;;;;;;5021778;28;20901;-76
2023/07/16 12:42:32;;;;;;;4.00;2.40;;;27.90;47.70;;;;;;5031094;28;20184;-77
2023/07/16 12:44:58;;;;;;;3.80;2.07;;;27.90;47.80;;;;;;5029580;28;20440;-77